Terminal Aerodrome Forecast
Issued by NWS Sterling, VA

Current Version | Previous Version | Graphics & Text | Print | Product List | Glossary On
Versions: 1 2 3 4 5 6 7 8 9 10 11 12 13 14 15 16 17 18 19 20 21
000
FTUS41 KLWX 161700
TAFIAD
TAF
KIAD 161720Z 1618/1724 32008G16KT P6SM SCT050
     FM162200 34005KT P6SM FEW050
     FM170000 VRB03KT P6SM FEW200
     FM171500 05004KT P6SM SCT050
     FM171800 13004KT P6SM SCT050
     FM172000 16005KT P6SM BKN050=

USA.gov is the U.S. government's official web portal to all federal, state and local government web resources and services.